Forside
METAR-TAF:

METAR-TAF

Lufthavne :

Dodge County Airport

Juneau, Wisconsin, USA

Breddekreds: 43-25-36N, længdekreds: 088-42-12W, højde: 285 m

Aktuelle vejr

Denne rapport blev lavet for 16 minutter siden, kl. 03:35 UTC
Vind 16 kt fra østsydøst
Temperatur -3°C
Fugtighed 93%
Tryk 1022 hPa
Sigt: 0.8 km
Overskyet i en højde af 800 ft
sne

METAR: KUNU 180335Z AUTO 11016KT 1/2SM SN OVC008 M03/M04 A3017 RMK AO2 T10301037

Tid: 21:51 (03:51 UTC)


TAF: fraværende

Vejrobservationer og prognoser fra mere end 4000 lufthavne (METAR og TAF).

De gule og røde prikker repræsenterer de meteorologiske stationer.

Flyt musen over at se navnet på stationen.

Så klik over at se vejr observationer og prognoser.

At skifte det kort: Klik på de grønne knapper med et sort kors for at zoome ind; på den grønne knap med en bindestreg for at zoome ud; eller på de grønne pile for tilstødende kort.


METAR-TAF: